Time;durP1;ratioP1;P1;durP2;ratioP2;P2;SDS_P1;SDS_P2;PMS_P1;PMS_P2;Temp;Humidity;BMP_temperature;BMP_pressure;BME280_temperature;BME280_humidity;BME280_pressure;Samples;Min_cycle;Max_cycle;Signal;HPM_P1;HPM_P2
2024/03/15 00:02:01;;;;;;;2.00;1.80;;;;;;;;;;6318608;28;20024;-78
2024/03/15 00:05:01;;;;;;;1.77;1.37;;;;;;;;;;6316304;28;20099;-78
2024/03/15 00:08:01;;;;;;;2.33;1.67;;;;;;;;;;6313073;28;20427;-78
2024/03/15 00:11:01;;;;;;;1.60;1.50;;;;;;;;;;6320406;28;20103;-78
2024/03/15 00:14:02;;;;;;;2.63;1.60;;;;;;;;;;6305158;28;20031;-78
2024/03/15 00:17:02;;;;;;;1.67;1.43;;;;;;;;;;6295590;28;20515;-78
2024/03/15 00:20:05;;;;;;;1.90;1.53;;;;;;;;;;6318676;28;20032;-78
2024/03/15 00:23:07;;;;;;;1.85;1.50;;;;;;;;;;6321129;28;20024;-79
2024/03/15 00:26:09;;;;;;;2.22;1.50;;;;;;;;;;6311528;28;20056;-79
2024/03/15 00:29:12;;;;;;;2.20;1.63;;;;;;;;;;6297012;28;20354;-79
2024/03/15 00:32:12;;;;;;;2.13;1.60;;;;;;;;;;6316974;28;20123;-79
2024/03/15 00:35:12;;;;;;;3.03;1.43;;;;;;;;;;6323401;28;20522;-79
2024/03/15 00:38:13;;;;;;;2.00;1.37;;;;;;;;;;6319806;28;20048;-78
2024/03/15 00:41:15;;;;;;;3.40;1.60;;;;;;;;;;6321589;28;20472;-78
2024/03/15 00:44:15;;;;;;;1.80;1.42;;;;;;;;;;6326084;28;20093;-78
2024/03/15 00:47:15;;;;;;;2.20;1.60;;;;;;;;;;6321060;28;20028;-78
2024/03/15 00:50:16;;;;;;;2.47;1.70;;;;;;;;;;6324527;28;20527;-78
2024/03/15 00:53:17;;;;;;;1.83;1.58;;;;;;;;;;6318995;28;20056;-81
2024/03/15 00:56:17;;;;;;;2.17;1.67;;;;;;;;;;6305335;28;20118;-78
2024/03/15 00:59:18;;;;;;;1.27;1.17;;;;;;;;;;6316840;28;20024;-77
2024/03/15 01:02:18;;;;;;;1.67;1.47;;;;;;;;;;6324518;28;20490;-78
2024/03/15 01:05:18;;;;;;;1.53;1.43;;;;;;;;;;6320609;28;20070;-80
2024/03/15 01:08:19;;;;;;;1.60;1.50;;;;;;;;;;6322153;28;20020;-80
2024/03/15 01:11:19;;;;;;;1.87;1.60;;;;;;;;;;6317183;28;20028;-80
2024/03/15 01:14:20;;;;;;;1.53;1.23;;;;;;;;;;6324423;28;20048;-79
2024/03/15 01:17:20;;;;;;;1.70;1.58;;;;;;;;;;6323261;28;20058;-80
2024/03/15 01:20:20;;;;;;;1.33;1.23;;;;;;;;;;6305035;28;20027;-79
2024/03/15 01:23:21;;;;;;;2.57;1.63;;;;;;;;;;6316636;28;20029;-79
2024/03/15 01:26:21;;;;;;;1.90;1.70;;;;;;;;;;6317472;28;20057;-80
2024/03/15 01:29:24;;;;;;;2.40;1.40;;;;;;;;;;6323651;28;20020;-81
2024/03/15 01:32:24;;;;;;;2.10;1.60;;;;;;;;;;6324010;28;20028;-80
2024/03/15 01:35:32;;;;;;;1.80;1.53;;;;;;;;;;6322407;28;20027;-80
2024/03/15 01:38:32;;;;;;;1.70;1.45;;;;;;;;;;6320201;28;20104;-80
2024/03/15 01:41:32;;;;;;;1.67;1.47;;;;;;;;;;6322744;28;20472;-80
2024/03/15 01:44:51;;;;;;;1.53;1.37;;;;;;;;;;6323838;28;20031;-80
2024/03/15 01:47:51;;;;;;;1.40;1.30;;;;;;;;;;6319558;28;20024;-80
2024/03/15 01:50:52;;;;;;;1.93;1.60;;;;;;;;;;6322984;28;20066;-80
2024/03/15 01:53:52;;;;;;;1.63;1.47;;;;;;;;;;6321883;28;20419;-79
2024/03/15 01:56:53;;;;;;;2.30;1.67;;;;;;;;;;6318361;28;20047;-80
2024/03/15 01:59:53;;;;;;;1.73;1.53;;;;;;;;;;6320581;28;20256;-80
2024/03/15 02:02:53;;;;;;;1.63;1.53;;;;;;;;;;6319619;28;20563;-80
2024/03/15 02:05:54;;;;;;;2.77;1.40;;;;;;;;;;6320800;28;20418;-79
2024/03/15 02:08:55;;;;;;;1.63;1.30;;;;;;;;;;6302149;28;20526;-79
2024/03/15 02:11:55;;;;;;;1.48;1.38;;;;;;;;;;6317978;28;20453;-80
2024/03/15 02:14:56;;;;;;;1.60;1.33;;;;;;;;;;6321739;28;20032;-80
2024/03/15 02:17:56;;;;;;;1.50;1.30;;;;;;;;;;6316045;28;20430;-79
2024/03/15 02:20:56;;;;;;;1.67;1.40;;;;;;;;;;6318985;28;20024;-80
2024/03/15 02:23:57;;;;;;;1.60;1.47;;;;;;;;;;6321185;28;20027;-80
2024/03/15 02:26:57;;;;;;;2.50;1.50;;;;;;;;;;6303195;28;20048;-80
2024/03/15 02:29:57;;;;;;;2.33;1.60;;;;;;;;;;6320788;28;20020;-80
2024/03/15 02:32:58;;;;;;;1.90;1.57;;;;;;;;;;6322869;28;20031;-80
2024/03/15 02:35:59;;;;;;;2.03;1.42;;;;;;;;;;6320187;28;20020;-80
2024/03/15 02:38:59;;;;;;;1.57;1.30;;;;;;;;;;6301070;28;20028;-80
2024/03/15 02:42:01;;;;;;;2.40;1.77;;;;;;;;;;6321848;28;20020;-79
2024/03/15 02:45:02;;;;;;;2.00;1.73;;;;;;;;;;6300275;28;20035;-79
2024/03/15 02:48:02;;;;;;;2.03;1.57;;;;;;;;;;6304766;28;20036;-80
2024/03/15 02:51:02;;;;;;;1.90;1.70;;;;;;;;;;6314816;28;20027;-80
2024/03/15 02:54:03;;;;;;;6.73;1.80;;;;;;;;;;6318800;28;20020;-81
2024/03/15 02:57:03;;;;;;;2.53;1.47;;;;;;;;;;6321191;28;20156;-80
2024/03/15 03:00:04;;;;;;;1.80;1.50;;;;;;;;;;6320689;28;20028;-80
2024/03/15 03:03:05;;;;;;;3.23;1.83;;;;;;;;;;6298535;28;20430;-80
2024/03/15 03:06:09;;;;;;;1.88;1.55;;;;;;;;;;6303488;28;20027;-80
2024/03/15 03:09:09;;;;;;;1.67;1.55;;;;;;;;;;6321002;28;20040;-80
2024/03/15 03:12:10;;;;;;;2.30;1.57;;;;;;;;;;6320977;28;20073;-80
2024/03/15 03:15:10;;;;;;;1.97;1.40;;;;;;;;;;6321718;28;20031;-80
2024/03/15 03:18:10;;;;;;;1.80;1.37;;;;;;;;;;6319015;28;20354;-80
2024/03/15 03:21:10;;;;;;;2.03;1.63;;;;;;;;;;6318995;28;20019;-80
2024/03/15 03:24:11;;;;;;;2.07;1.60;;;;;;;;;;6319124;28;20031;-78
2024/03/15 03:27:11;;;;;;;1.98;1.50;;;;;;;;;;6322785;28;20047;-80
2024/03/15 03:30:12;;;;;;;1.50;1.37;;;;;;;;;;6321298;28;20028;-80
2024/03/15 03:33:13;;;;;;;3.70;1.50;;;;;;;;;;6321308;28;20028;-81
2024/03/15 03:36:13;;;;;;;1.80;1.52;;;;;;;;;;6302142;28;20050;-80
2024/03/15 03:39:13;;;;;;;1.87;1.50;;;;;;;;;;6321997;28;20062;-79
2024/03/15 03:42:14;;;;;;;1.67;1.53;;;;;;;;;;6320121;28;20165;-80
2024/03/15 03:45:17;;;;;;;1.80;1.40;;;;;;;;;;6321747;28;20085;-80
2024/03/15 03:48:19;;;;;;;2.30;1.70;;;;;;;;;;6318165;28;20057;-80
2024/03/15 03:51:19;;;;;;;1.73;1.33;;;;;;;;;;6318230;28;20061;-79
2024/03/15 03:54:19;;;;;;;1.73;1.33;;;;;;;;;;6301556;28;20044;-78
2024/03/15 03:57:22;;;;;;;1.70;1.60;;;;;;;;;;6316114;28;20020;-78
2024/03/15 04:00:23;;;;;;;2.47;1.65;;;;;;;;;;6317014;28;20028;-81
2024/03/15 04:03:24;;;;;;;3.35;1.55;;;;;;;;;;6314760;28;20039;-80
2024/03/15 04:06:24;;;;;;;1.63;1.50;;;;;;;;;;6321035;28;20032;-80
2024/03/15 04:09:24;;;;;;;2.33;1.53;;;;;;;;;;6320048;28;20040;-80
2024/03/15 04:12:27;;;;;;;3.23;1.40;;;;;;;;;;6320196;28;20012;-80
2024/03/15 04:15:27;;;;;;;1.95;1.50;;;;;;;;;;6320265;28;20110;-80
2024/03/15 04:18:28;;;;;;;1.50;1.30;;;;;;;;;;6314808;28;20028;-80
2024/03/15 04:21:28;;;;;;;2.22;1.48;;;;;;;;;;6319713;28;20024;-80
2024/03/15 04:24:29;;;;;;;2.67;1.80;;;;;;;;;;6301793;28;20028;-80
2024/03/15 04:27:29;;;;;;;2.00;1.77;;;;;;;;;;6314794;28;20048;-80
2024/03/15 04:30:30;;;;;;;3.03;1.80;;;;;;;;;;6319288;28;20031;-80
2024/03/15 04:33:30;;;;;;;1.85;1.35;;;;;;;;;;6316507;28;20028;-80
2024/03/15 04:36:30;;;;;;;1.77;1.47;;;;;;;;;;6319964;28;20032;-80
2024/03/15 04:39:31;;;;;;;2.10;1.60;;;;;;;;;;6320884;28;20380;-80
2024/03/15 04:42:32;;;;;;;1.87;1.30;;;;;;;;;;6320393;28;20430;-80
2024/03/15 04:45:32;;;;;;;1.60;1.30;;;;;;;;;;6320432;28;20028;-79
2024/03/15 04:48:32;;;;;;;2.13;1.40;;;;;;;;;;6308628;28;20047;-80
2024/03/15 04:51:33;;;;;;;2.13;1.40;;;;;;;;;;6317944;28;20020;-80
2024/03/15 04:54:37;;;;;;;2.17;1.57;;;;;;;;;;6300010;28;20219;-80
2024/03/15 04:57:38;;;;;;;1.63;1.52;;;;;;;;;;6320260;28;20387;-80
2024/03/15 05:00:38;;;;;;;2.10;1.43;;;;;;;;;;6318960;28;20031;-80
2024/03/15 05:03:38;;;;;;;1.77;1.23;;;;;;;;;;6316526;28;20035;-80
2024/03/15 05:06:39;;;;;;;2.10;1.40;;;;;;;;;;6320334;28;20028;-80
2024/03/15 05:09:41;;;;;;;1.57;1.40;;;;;;;;;;6324047;28;20123;-80
2024/03/15 05:12:41;;;;;;;1.98;1.73;;;;;;;;;;6323661;28;20054;-80
2024/03/15 05:15:42;;;;;;;1.60;1.30;;;;;;;;;;6320283;28;20039;-81
2024/03/15 05:18:42;;;;;;;1.87;1.40;;;;;;;;;;6304351;28;20051;-80
2024/03/15 05:21:42;;;;;;;1.40;1.30;;;;;;;;;;6322051;28;20105;-80
2024/03/15 05:24:43;;;;;;;1.83;1.40;;;;;;;;;;6307792;28;20028;-81
2024/03/15 05:27:43;;;;;;;2.00;1.40;;;;;;;;;;6323810;28;20161;-80
2024/03/15 05:30:43;;;;;;;2.83;1.30;;;;;;;;;;6324112;28;20391;-80
2024/03/15 05:33:44;;;;;;;2.00;1.60;;;;;;;;;;6300101;28;20469;-80
2024/03/15 05:36:44;;;;;;;1.97;1.33;;;;;;;;;;6323853;28;20028;-80
2024/03/15 05:39:45;;;;;;;1.80;1.53;;;;;;;;;;6322272;28;20129;-80
2024/03/15 05:42:45;;;;;;;2.20;1.63;;;;;;;;;;6322658;28;20657;-80
2024/03/15 05:45:46;;;;;;;1.80;1.53;;;;;;;;;;6323428;28;20035;-80
2024/03/15 05:48:46;;;;;;;1.93;1.60;;;;;;;;;;6323197;28;20465;-81
2024/03/15 05:51:46;;;;;;;2.93;1.50;;;;;;;;;;6321392;28;20096;-81
2024/03/15 05:54:46;;;;;;;2.20;1.53;;;;;;;;;;6324946;28;20472;-80
2024/03/15 05:57:47;;;;;;;2.33;1.47;;;;;;;;;;6323777;28;20518;-80
2024/03/15 06:00:47;;;;;;;2.27;1.37;;;;;;;;;;6319498;28;20370;-80
2024/03/15 06:03:47;;;;;;;2.87;1.80;;;;;;;;;;6319051;28;20031;-80
2024/03/15 06:06:48;;;;;;;2.20;1.57;;;;;;;;;;6324250;28;20024;-80
2024/03/15 06:09:49;;;;;;;2.33;1.40;;;;;;;;;;6324703;28;20035;-80
2024/03/15 06:12:50;;;;;;;1.77;1.35;;;;;;;;;;6322951;28;20042;-79
2024/03/15 06:15:50;;;;;;;;;;;;;;;;;;6321324;28;20031;-79
2024/03/15 06:18:51;;;;;;;1.65;1.20;;;;;;;;;;6320641;28;19908;-79
2024/03/15 06:21:51;;;;;;;1.20;1.10;;;;;;;;;;6321499;28;20028;-79
2024/03/15 06:24:58;;;;;;;1.77;1.67;;;;;;;;;;6323357;28;20016;-80
2024/03/15 06:28:06;;;;;;;2.33;1.52;;;;;;;;;;6302279;28;20028;-79
2024/03/15 06:31:06;;;;;;;2.10;1.50;;;;;;;;;;6307534;28;20053;-79
2024/03/15 06:34:07;;;;;;;1.70;1.40;;;;;;;;;;6301281;28;20024;-79
2024/03/15 06:37:09;;;;;;;1.85;1.48;;;;;;;;;;6323034;28;20031;-79
2024/03/15 06:40:18;;;;;;;1.70;1.30;;;;;;;;;;6321703;28;20038;-79
2024/03/15 06:43:35;;;;;;;1.98;1.50;;;;;;;;;;6323294;28;20403;-78
2024/03/15 06:50:20;;;;;;;1.65;1.40;;;;;;;;;;6318366;28;20032;-80
2024/03/15 06:53:20;;;;;;;2.22;1.55;;;;;;;;;;6316884;28;20038;-80
2024/03/15 06:56:21;;;;;;;1.87;1.50;;;;;;;;;;6323458;28;20099;-80
2024/03/15 06:59:21;;;;;;;1.30;1.20;;;;;;;;;;6303545;28;20031;-80
2024/03/15 07:02:21;;;;;;;2.50;1.87;;;;;;;;;;6300893;28;20028;-80
2024/03/15 07:05:23;;;;;;;2.20;1.77;;;;;;;;;;6316043;28;20464;-80
2024/03/15 07:08:23;;;;;;;2.25;1.75;;;;;;;;;;6316499;28;20032;-81
2024/03/15 07:11:28;;;;;;;2.37;1.70;;;;;;;;;;6321958;28;20047;-82
2024/03/15 07:14:28;;;;;;;2.50;2.00;;;;;;;;;;6303421;28;20078;-83
2024/03/15 07:17:30;;;;;;;3.00;1.67;;;;;;;;;;6320543;28;20016;-82
2024/03/15 07:20:30;;;;;;;;;;;;;;;;;;6319758;28;20031;-81
2024/03/15 07:23:31;;;;;;;1.70;1.30;;;;;;;;;;6321203;28;20364;-82
2024/03/15 07:26:31;;;;;;;2.20;1.70;;;;;;;;;;6308491;28;20059;-82
2024/03/15 07:29:32;;;;;;;2.97;2.00;;;;;;;;;;6310271;28;20457;-81
2024/03/15 07:32:35;;;;;;;2.47;2.13;;;;;;;;;;6302617;28;20026;-81
2024/03/15 07:35:36;;;;;;;2.22;2.00;;;;;;;;;;6305726;28;20046;-82
2024/03/15 07:38:36;;;;;;;2.60;1.97;;;;;;;;;;6323401;28;20028;-81
2024/03/15 07:41:38;;;;;;;2.60;1.90;;;;;;;;;;6323290;28;20012;-81
2024/03/15 07:44:39;;;;;;;2.50;1.75;;;;;;;;;;6306387;28;20051;-80
2024/03/15 07:47:39;;;;;;;2.23;1.80;;;;;;;;;;6316277;28;20028;-81
2024/03/15 07:50:41;;;;;;;2.37;1.80;;;;;;;;;;6323601;28;20016;-81
2024/03/15 07:53:41;;;;;;;2.42;1.90;;;;;;;;;;6322819;28;20085;-80
2024/03/15 07:56:43;;;;;;;2.67;1.73;;;;;;;;;;6323603;28;20031;-79
2024/03/15 07:59:43;;;;;;;2.70;1.70;;;;;;;;;;6322311;28;20028;-80
2024/03/15 08:02:44;;;;;;;2.33;1.90;;;;;;;;;;6320492;28;20031;-84
2024/03/15 08:05:44;;;;;;;2.37;1.33;;;;;;;;;;6324202;28;20052;-81
2024/03/15 08:08:45;;;;;;;1.97;1.50;;;;;;;;;;6320357;28;20081;-80
2024/03/15 08:11:45;;;;;;;1.55;1.35;;;;;;;;;;6323112;28;20024;-80
2024/03/15 08:14:46;;;;;;;2.47;1.30;;;;;;;;;;6322739;28;20047;-79
2024/03/15 08:17:50;;;;;;;1.50;1.40;;;;;;;;;;6319168;28;20361;-81
2024/03/15 08:20:50;;;;;;;1.65;1.50;;;;;;;;;;6297197;28;20025;-79
2024/03/15 08:23:50;;;;;;;2.20;1.30;;;;;;;;;;6320430;28;20024;-81
2024/03/15 08:26:51;;;;;;;1.43;1.20;;;;;;;;;;6320456;28;20135;-80
2024/03/15 08:29:51;;;;;;;1.83;1.40;;;;;;;;;;6328512;28;20051;-81
2024/03/15 08:32:51;;;;;;;1.70;1.27;;;;;;;;;;6320479;28;20020;-80
2024/03/15 08:35:52;;;;;;;1.40;1.30;;;;;;;;;;6313375;28;20822;-80
2024/03/15 08:38:53;;;;;;;1.87;1.40;;;;;;;;;;6309822;28;20024;-79
2024/03/15 08:41:53;;;;;;;1.58;1.25;;;;;;;;;;6320252;28;20032;-80
2024/03/15 08:44:53;;;;;;;2.20;1.33;;;;;;;;;;6322833;28;20027;-79
2024/03/15 08:47:54;;;;;;;2.13;1.60;;;;;;;;;;6321993;28;20024;-80
2024/03/15 08:50:54;;;;;;;1.73;1.50;;;;;;;;;;6317386;28;20033;-79
2024/03/15 08:53:54;;;;;;;1.30;1.20;;;;;;;;;;6317653;28;20032;-80
2024/03/15 08:56:56;;;;;;;1.27;1.17;;;;;;;;;;6322824;28;20043;-79
2024/03/15 08:59:57;;;;;;;1.30;1.00;;;;;;;;;;5965152;28;10000041;-80
2024/03/15 09:02:58;;;;;;;1.80;1.33;;;;;;;;;;6322382;28;20031;-80
2024/03/15 09:05:59;;;;;;;1.23;1.08;;;;;;;;;;6324103;28;20020;-80
2024/03/15 09:09:09;;;;;;;1.45;1.13;;;;;;;;;;6324706;28;20035;-80
2024/03/15 09:12:10;;;;;;;0.85;0.77;;;;;;;;;;6303239;28;20089;-80
2024/03/15 09:15:19;;;;;;;1.10;0.90;;;;;;;;;;6316845;28;20024;-79
2024/03/15 09:18:20;;;;;;;1.13;1.00;;;;;;;;;;6318406;28;20150;-79
2024/03/15 09:21:20;;;;;;;1.40;1.10;;;;;;;;;;6314461;28;20488;-79
2024/03/15 09:24:20;;;;;;;1.00;0.90;;;;;;;;;;6306048;28;20297;-79
2024/03/15 09:27:21;;;;;;;1.27;1.13;;;;;;;;;;6322545;28;20509;-79
2024/03/15 09:30:36;;;;;;;2.40;1.17;;;;;;;;;;6309954;28;20025;-78
2024/03/15 09:33:37;;;;;;;1.23;1.10;;;;;;;;;;6320625;28;20035;-78
2024/03/15 09:36:38;;;;;;;1.83;1.20;;;;;;;;;;6301309;28;20052;-78
2024/03/15 09:39:39;;;;;;;1.23;1.13;;;;;;;;;;6321899;28;20410;-79
2024/03/15 09:42:40;;;;;;;;;;;;;;;;;;6316764;28;20024;-80
2024/03/15 09:45:41;;;;;;;1.50;1.15;;;;;;;;;;6316204;28;19978;-78
2024/03/15 09:48:43;;;;;;;1.30;0.98;;;;;;;;;;6316174;28;20032;-79
2024/03/15 09:51:44;;;;;;;1.52;1.30;;;;;;;;;;6324974;28;20028;-79
2024/03/15 09:54:44;;;;;;;2.15;1.33;;;;;;;;;;6323483;28;20435;-79
2024/03/15 09:57:46;;;;;;;1.80;1.50;;;;;;;;;;6324902;28;20032;-78
2024/03/15 10:00:47;;;;;;;1.38;1.27;;;;;;;;;;6323721;28;20031;-78
2024/03/15 10:03:50;;;;;;;;;;;;;;;;;;6321083;28;20113;-80
2024/03/15 10:06:50;;;;;;;1.23;1.00;;;;;;;;;;6306727;28;19904;-78
2024/03/15 10:09:54;;;;;;;1.17;1.07;;;;;;;;;;6325041;28;20500;-78
2024/03/15 10:12:54;;;;;;;1.33;1.23;;;;;;;;;;6315400;28;20074;-80
2024/03/15 10:15:54;;;;;;;1.20;1.07;;;;;;;;;;6316899;28;20032;-82
2024/03/15 10:18:55;;;;;;;1.30;1.20;;;;;;;;;;6303591;28;20093;-80
2024/03/15 10:21:57;;;;;;;1.90;1.30;;;;;;;;;;6301221;28;20301;-80
2024/03/15 10:24:57;;;;;;;1.77;1.65;;;;;;;;;;6303217;28;20056;-78
2024/03/15 10:27:58;;;;;;;2.10;1.70;;;;;;;;;;6306921;28;20050;-79
2024/03/15 10:30:58;;;;;;;2.07;1.87;;;;;;;;;;6324851;28;20012;-79
2024/03/15 10:33:58;;;;;;;2.70;1.53;;;;;;;;;;6288757;28;20035;-78
2024/03/15 10:36:59;;;;;;;1.67;1.53;;;;;;;;;;6309421;28;20058;-78
2024/03/15 10:39:59;;;;;;;2.17;1.98;;;;;;;;;;6306015;28;20028;-78
2024/03/15 10:43:03;;;;;;;2.40;2.00;;;;;;;;;;6318116;28;20053;-78
2024/03/15 10:46:04;;;;;;;1.90;1.67;;;;;;;;;;6317822;28;20058;-79
2024/03/15 10:49:05;;;;;;;1.92;1.77;;;;;;;;;;6320939;28;20407;-79
2024/03/15 10:52:06;;;;;;;2.10;1.90;;;;;;;;;;6323851;28;20518;-79
2024/03/15 10:55:15;;;;;;;3.75;2.00;;;;;;;;;;6322707;28;20024;-78
2024/03/15 10:58:15;;;;;;;2.50;2.03;;;;;;;;;;6322529;28;20406;-78
2024/03/15 11:01:17;;;;;;;2.78;2.17;;;;;;;;;;6320356;28;20032;-79
2024/03/15 11:04:17;;;;;;;2.42;1.98;;;;;;;;;;6342163;28;20119;-86
2024/03/15 11:07:18;;;;;;;2.50;2.25;;;;;;;;;;6321492;28;20024;-86
2024/03/15 11:10:21;;;;;;;3.13;2.33;;;;;;;;;;6313872;28;20028;-85
2024/03/15 11:13:25;;;;;;;2.83;2.25;;;;;;;;;;6305764;28;20278;-85
2024/03/15 11:16:25;;;;;;;2.90;2.20;;;;;;;;;;6305525;28;20032;-86
2024/03/15 11:19:25;;;;;;;2.20;2.00;;;;;;;;;;6323264;28;20067;-85
2024/03/15 11:22:26;;;;;;;1.87;1.63;;;;;;;;;;6323985;28;20472;-85
2024/03/15 11:25:27;;;;;;;1.87;1.50;;;;;;;;;;6323403;28;20290;-85
2024/03/15 11:28:31;;;;;;;3.70;2.08;;;;;;;;;;6321998;28;20265;-85
2024/03/15 11:31:32;;;;;;;2.70;1.85;;;;;;;;;;6322619;28;20031;-88
2024/03/15 11:34:32;;;;;;;1.80;1.52;;;;;;;;;;6323063;28;20498;-85
2024/03/15 11:37:33;;;;;;;2.25;2.05;;;;;;;;;;6323636;28;20021;-86
2024/03/15 11:40:33;;;;;;;1.93;1.80;;;;;;;;;;6304383;28;20028;-86
2024/03/15 11:43:33;;;;;;;2.43;2.07;;;;;;;;;;6321568;28;20274;-85
2024/03/15 11:46:33;;;;;;;2.20;1.90;;;;;;;;;;6303951;28;20027;-85
2024/03/15 11:49:34;;;;;;;3.03;2.00;;;;;;;;;;6303783;28;20433;-86
2024/03/15 11:52:34;;;;;;;3.97;2.07;;;;;;;;;;6323292;28;20278;-86
2024/03/15 11:55:34;;;;;;;2.30;2.03;;;;;;;;;;6305635;28;20377;-86
2024/03/15 11:58:39;;;;;;;3.83;1.87;;;;;;;;;;6320885;28;20476;-86
2024/03/15 12:01:39;;;;;;;2.95;2.15;;;;;;;;;;6293966;28;20030;-85
2024/03/15 12:04:40;;;;;;;1.70;1.60;;;;;;;;;;6313502;28;20465;-86
2024/03/15 12:07:41;;;;;;;3.30;1.98;;;;;;;;;;6309020;28;20372;-85
2024/03/15 12:10:46;;;;;;;2.10;1.67;;;;;;;;;;6322875;28;20031;-85
2024/03/15 12:13:52;;;;;;;2.08;1.88;;;;;;;;;;6301486;28;20028;-84
2024/03/15 12:16:53;;;;;;;2.78;2.15;;;;;;;;;;6320076;28;20062;-83
2024/03/15 12:19:56;;;;;;;2.63;2.42;;;;;;;;;;6320636;28;20032;-84
2024/03/15 12:22:57;;;;;;;2.97;2.63;;;;;;;;;;6321356;28;20058;-85
2024/03/15 12:25:57;;;;;;;2.60;2.10;;;;;;;;;;6320313;28;20056;-83
2024/03/15 12:28:58;;;;;;;2.33;2.08;;;;;;;;;;6322331;28;20626;-80
2024/03/15 12:31:58;;;;;;;;;;;;;;;;;;6321090;28;20036;-89
2024/03/15 12:34:59;;;;;;;2.00;1.77;;;;;;;;;;6322115;28;19950;-79
2024/03/15 12:38:00;;;;;;;;;;;;;;;;;;6322518;28;20365;-80
2024/03/15 12:41:00;;;;;;;1.60;1.48;;;;;;;;;;6321454;28;20318;-79
2024/03/15 12:44:01;;;;;;;2.17;1.97;;;;;;;;;;6320474;28;20468;-79
2024/03/15 12:47:02;;;;;;;2.25;1.98;;;;;;;;;;6302537;28;20320;-79
2024/03/15 12:50:10;;;;;;;2.20;2.00;;;;;;;;;;6301666;28;20084;-79
2024/03/15 12:53:11;;;;;;;2.58;2.20;;;;;;;;;;6322013;28;20028;-79
2024/03/15 12:56:12;;;;;;;2.95;2.03;;;;;;;;;;6322776;28;20012;-79
2024/03/15 12:59:12;;;;;;;1.90;1.80;;;;;;;;;;6321210;28;20066;-79
2024/03/15 13:02:12;;;;;;;;;;;;;;;;;;6318714;28;20020;-79
2024/03/15 13:05:16;;;;;;;2.03;1.55;;;;;;;;;;6321333;28;20322;-79
2024/03/15 13:08:16;;;;;;;2.30;1.70;;;;;;;;;;6322761;28;20023;-79
2024/03/15 13:11:17;;;;;;;2.08;1.85;;;;;;;;;;6323056;28;20476;-79
2024/03/15 13:14:18;;;;;;;;;;;;;;;;;;6323244;28;20028;-78
2024/03/15 13:17:18;;;;;;;2.40;1.40;;;;;;;;;;6321011;28;19904;-79
2024/03/15 13:20:18;;;;;;;2.63;1.73;;;;;;;;;;6320625;28;20112;-81
2024/03/15 13:23:18;;;;;;;;;;;;;;;;;;6307168;28;20056;-79
2024/03/15 13:26:24;;;;;;;2.17;1.33;;;;;;;;;;6296816;28;19917;-77
2024/03/15 13:29:24;;;;;;;1.70;1.60;;;;;;;;;;6303864;28;20518;-78
2024/03/15 13:32:25;;;;;;;1.67;1.40;;;;;;;;;;6316387;28;20040;-78
2024/03/15 13:35:26;;;;;;;3.88;1.45;;;;;;;;;;6325681;28;20024;-78
2024/03/15 13:38:27;;;;;;;1.77;1.60;;;;;;;;;;6325788;28;20024;-78
2024/03/15 13:41:27;;;;;;;;;;;;;;;;;;6300932;28;20031;-78
2024/03/15 13:44:27;;;;;;;1.50;1.27;;;;;;;;;;6321612;28;20284;-78
2024/03/15 13:47:27;;;;;;;;;;;;;;;;;;6308368;28;20533;-77
2024/03/15 13:50:28;;;;;;;1.50;1.40;;;;;;;;;;6310517;28;19912;-77
2024/03/15 13:53:28;;;;;;;;;;;;;;;;;;6322777;28;20070;-77
2024/03/15 13:56:31;;;;;;;1.33;1.20;;;;;;;;;;6320376;28;19915;-78
2024/03/15 13:59:32;;;;;;;1.45;1.35;;;;;;;;;;6323897;28;20032;-77
2024/03/15 14:02:32;;;;;;;1.53;1.43;;;;;;;;;;6316192;28;20112;-77
2024/03/15 14:05:35;;;;;;;;;;;;;;;;;;6326189;28;20024;-77
2024/03/15 14:08:36;;;;;;;1.55;1.27;;;;;;;;;;6324339;28;20353;-77
2024/03/15 14:11:36;;;;;;;1.70;1.40;;;;;;;;;;6320061;28;20060;-77
2024/03/15 14:14:37;;;;;;;1.50;1.33;;;;;;;;;;6320657;28;20482;-77
2024/03/15 14:17:37;;;;;;;;;;;;;;;;;;6320759;28;20016;-77
2024/03/15 14:20:38;;;;;;;1.05;0.95;;;;;;;;;;6325216;28;19911;-76
2024/03/15 14:23:39;;;;;;;;;;;;;;;;;;6324849;28;20012;-77
2024/03/15 14:26:40;;;;;;;0.95;0.93;;;;;;;;;;6320163;28;19916;-77
2024/03/15 14:29:40;;;;;;;;;;;;;;;;;;6324793;28;20110;-77
2024/03/15 14:32:40;;;;;;;1.23;0.98;;;;;;;;;;6319486;28;19920;-77
2024/03/15 14:35:41;;;;;;;;;;;;;;;;;;6318854;28;20039;-77
2024/03/15 14:38:42;;;;;;;1.20;1.10;;;;;;;;;;6305559;28;19904;-77
2024/03/15 14:41:42;;;;;;;;;;;;;;;;;;6323818;28;20028;-76
2024/03/15 14:44:44;;;;;;;1.30;1.20;;;;;;;;;;6321242;28;20365;-78
2024/03/15 14:47:44;;;;;;;2.05;1.50;;;;;;;;;;6320522;28;20111;-78
2024/03/15 14:50:44;;;;;;;2.38;1.20;;;;;;;;;;6316474;28;20054;-78
2024/03/15 14:53:46;;;;;;;;;;;;;;;;;;6312568;28;20408;-78
2024/03/15 14:56:46;;;;;;;0.93;0.90;;;;;;;;;;6299478;28;19915;-78
2024/03/15 14:59:46;;;;;;;1.60;1.15;;;;;;;;;;6301621;28;20032;-78
2024/03/15 15:02:48;;;;;;;1.55;1.45;;;;;;;;;;6320737;28;20499;-78
2024/03/15 15:05:48;;;;;;;1.95;1.73;;;;;;;;;;6317874;28;20032;-78
2024/03/15 15:08:50;;;;;;;1.60;1.40;;;;;;;;;;6323292;28;20031;-78
2024/03/15 15:11:50;;;;;;;1.20;1.10;;;;;;;;;;6322674;28;20070;-78
2024/03/15 15:14:50;;;;;;;1.67;1.57;;;;;;;;;;6323955;28;20065;-78
2024/03/15 15:17:51;;;;;;;1.63;1.20;;;;;;;;;;6311991;28;20351;-78
2024/03/15 15:20:51;;;;;;;1.70;1.20;;;;;;;;;;6318577;28;20284;-78
2024/03/15 15:23:52;;;;;;;1.57;1.47;;;;;;;;;;6319929;28;20039;-77
2024/03/15 15:26:52;;;;;;;1.40;1.30;;;;;;;;;;6322135;28;20286;-77
2024/03/15 15:29:53;;;;;;;1.27;1.17;;;;;;;;;;6322803;28;20308;-77
2024/03/15 15:32:53;;;;;;;;;;;;;;;;;;6321580;28;20163;-78
2024/03/15 15:35:54;;;;;;;1.60;1.17;;;;;;;;;;6322886;28;19916;-77
2024/03/15 15:38:55;;;;;;;1.35;1.10;;;;;;;;;;6320276;28;20374;-77
2024/03/15 15:41:55;;;;;;;1.40;1.30;;;;;;;;;;6322486;28;20043;-77
2024/03/15 15:44:55;;;;;;;;;;;;;;;;;;6323482;28;20107;-77
2024/03/15 15:47:55;;;;;;;1.30;1.10;;;;;;;;;;6312475;28;19918;-77
2024/03/15 15:50:56;;;;;;;1.20;1.10;;;;;;;;;;6302430;28;20032;-77
2024/03/15 15:53:56;;;;;;;;;;;;;;;;;;6302486;28;20123;-78
2024/03/15 15:56:56;;;;;;;1.05;0.98;;;;;;;;;;6316565;28;19911;-78
2024/03/15 15:59:58;;;;;;;1.30;1.20;;;;;;;;;;6319622;28;20028;-77
2024/03/15 16:02:58;;;;;;;1.33;1.23;;;;;;;;;;6317934;28;20262;-77
2024/03/15 16:05:58;;;;;;;1.73;1.40;;;;;;;;;;6320283;28;20027;-78
2024/03/15 16:08:59;;;;;;;1.43;1.00;;;;;;;;;;6321301;28;20020;-77
2024/03/15 16:12:00;;;;;;;1.38;1.27;;;;;;;;;;6320605;28;20051;-77
2024/03/15 16:15:00;;;;;;;1.40;1.30;;;;;;;;;;6320708;28;20457;-78
2024/03/15 16:18:00;;;;;;;1.27;1.10;;;;;;;;;;6320156;28;20016;-77
2024/03/15 16:21:03;;;;;;;;;;;;;;;;;;6320684;28;20020;-78
2024/03/15 16:24:03;;;;;;;1.10;1.00;;;;;;;;;;6322183;28;20241;-79
2024/03/15 16:27:03;;;;;;;1.17;1.07;;;;;;;;;;6319442;28;20063;-79
2024/03/15 16:30:04;;;;;;;;;;;;;;;;;;6320566;28;20024;-79
2024/03/15 16:33:04;;;;;;;1.10;0.90;;;;;;;;;;6298144;28;20279;-78
2024/03/15 16:36:04;;;;;;;0.83;0.83;;;;;;;;;;6320825;28;20035;-79
2024/03/15 16:39:08;;;;;;;1.13;1.03;;;;;;;;;;6304608;28;20562;-78
2024/03/15 16:42:09;;;;;;;1.60;1.15;;;;;;;;;;6320258;28;20266;-79
2024/03/15 16:45:09;;;;;;;2.22;1.40;;;;;;;;;;6307810;28;20031;-79
2024/03/15 16:48:09;;;;;;;1.83;1.40;;;;;;;;;;6276980;28;20033;-79
2024/03/15 16:51:10;;;;;;;1.30;1.13;;;;;;;;;;6278621;28;20120;-79
2024/03/15 16:54:10;;;;;;;1.43;1.27;;;;;;;;;;6297277;28;20333;-78
2024/03/15 16:57:11;;;;;;;1.40;1.30;;;;;;;;;;6278916;28;20354;-79
2024/03/15 17:00:16;;;;;;;1.63;1.10;;;;;;;;;;6319014;28;20032;-79
2024/03/15 17:03:16;;;;;;;1.15;0.95;;;;;;;;;;6322267;28;20016;-78
2024/03/15 17:06:16;;;;;;;1.53;1.27;;;;;;;;;;6326585;28;20563;-79
2024/03/15 17:09:18;;;;;;;1.35;1.23;;;;;;;;;;6327526;28;20052;-77
2024/03/15 17:12:18;;;;;;;2.17;1.58;;;;;;;;;;6325717;28;20081;-78
2024/03/15 17:15:19;;;;;;;1.50;1.20;;;;;;;;;;6323474;28;20492;-78
2024/03/15 17:18:19;;;;;;;1.30;1.20;;;;;;;;;;6324202;28;20469;-78
2024/03/15 17:21:20;;;;;;;1.73;1.30;;;;;;;;;;6325475;28;20412;-78
2024/03/15 17:24:20;;;;;;;2.03;1.47;;;;;;;;;;6326136;28;20038;-78
2024/03/15 17:27:20;;;;;;;1.40;1.30;;;;;;;;;;6325066;28;20127;-77
2024/03/15 17:30:20;;;;;;;1.63;1.33;;;;;;;;;;6325096;28;20034;-78
2024/03/15 17:33:21;;;;;;;1.47;1.37;;;;;;;;;;6322863;28;20385;-78
2024/03/15 17:36:21;;;;;;;1.42;1.33;;;;;;;;;;6325121;28;20350;-77
2024/03/15 17:39:22;;;;;;;1.90;1.50;;;;;;;;;;6306639;28;20047;-76
2024/03/15 17:42:22;;;;;;;1.38;1.27;;;;;;;;;;6322154;28;20078;-77
2024/03/15 17:45:23;;;;;;;1.67;1.33;;;;;;;;;;6302056;28;20103;-77
2024/03/15 17:48:25;;;;;;;2.03;1.37;;;;;;;;;;6318256;28;20097;-80
2024/03/15 17:51:26;;;;;;;2.00;1.77;;;;;;;;;;6326366;28;20028;-78
2024/03/15 17:54:27;;;;;;;2.55;2.22;;;;;;;;;;6320896;28;20032;-81
2024/03/15 17:57:29;;;;;;;1.60;1.50;;;;;;;;;;6325856;28;20023;-80
2024/03/15 18:00:30;;;;;;;2.50;1.58;;;;;;;;;;6307795;28;20036;-80
2024/03/15 18:03:30;;;;;;;1.67;1.58;;;;;;;;;;6321285;28;20020;-80
2024/03/15 18:06:30;;;;;;;2.83;1.90;;;;;;;;;;6325631;28;20047;-81
2024/03/15 18:09:31;;;;;;;1.87;1.67;;;;;;;;;;6326651;28;20016;-79
2024/03/15 18:12:32;;;;;;;;;;;;;;;;;;6305873;28;20024;-81
2024/03/15 18:15:32;;;;;;;1.83;1.30;;;;;;;;;;6305042;28;19908;-81
2024/03/15 18:18:33;;;;;;;1.83;1.50;;;;;;;;;;6312085;28;20465;-81